sensor_id;sensor_type;location;lat;lon;timestamp;P1;durP1;ratioP1;P2;durP2;ratioP2
18754;SDS011;35061;47.664;9.166;2023-03-19T00:00:29;5.47;;;4.03;;
18754;SDS011;35061;47.664;9.166;2023-03-19T00:02:57;4.80;;;3.95;;
18754;SDS011;35061;47.664;9.166;2023-03-19T00:05:25;5.32;;;3.75;;
18754;SDS011;35061;47.664;9.166;2023-03-19T00:07:53;6.75;;;4.12;;
18754;SDS011;35061;47.664;9.166;2023-03-19T00:10:21;4.85;;;3.80;;
18754;SDS011;35061;47.664;9.166;2023-03-19T00:12:48;6.65;;;4.10;;
18754;SDS011;35061;47.664;9.166;2023-03-19T00:15:16;6.55;;;3.95;;
18754;SDS011;35061;47.664;9.166;2023-03-19T00:17:44;5.10;;;3.75;;
18754;SDS011;35061;47.664;9.166;2023-03-19T00:20:12;8.50;;;3.85;;
18754;SDS011;35061;47.664;9.166;2023-03-19T00:22:41;6.25;;;3.42;;
18754;SDS011;35061;47.664;9.166;2023-03-19T00:25:09;8.35;;;4.97;;
18754;SDS011;35061;47.664;9.166;2023-03-19T00:27:37;5.90;;;4.10;;
18754;SDS011;35061;47.664;9.166;2023-03-19T00:30:05;7.28;;;4.07;;
18754;SDS011;35061;47.664;9.166;2023-03-19T00:32:34;6.78;;;3.85;;
18754;SDS011;35061;47.664;9.166;2023-03-19T00:35:03;4.70;;;3.42;;
18754;SDS011;35061;47.664;9.166;2023-03-19T00:37:33;6.18;;;3.90;;
18754;SDS011;35061;47.664;9.166;2023-03-19T00:40:01;4.70;;;3.80;;
18754;SDS011;35061;47.664;9.166;2023-03-19T00:42:31;4.62;;;3.95;;
18754;SDS011;35061;47.664;9.166;2023-03-19T00:44:59;3.60;;;3.22;;
18754;SDS011;35061;47.664;9.166;2023-03-19T00:47:26;4.65;;;3.20;;
18754;SDS011;35061;47.664;9.166;2023-03-19T00:49:54;7.50;;;3.87;;
18754;SDS011;35061;47.664;9.166;2023-03-19T00:52:22;4.53;;;3.70;;
18754;SDS011;35061;47.664;9.166;2023-03-19T00:54:50;5.30;;;3.67;;
18754;SDS011;35061;47.664;9.166;2023-03-19T00:57:18;4.68;;;3.45;;
18754;SDS011;35061;47.664;9.166;2023-03-19T00:59:45;4.00;;;3.30;;
18754;SDS011;35061;47.664;9.166;2023-03-19T01:02:14;4.00;;;3.15;;
18754;SDS011;35061;47.664;9.166;2023-03-19T01:04:42;6.15;;;2.75;;
18754;SDS011;35061;47.664;9.166;2023-03-19T01:07:10;4.20;;;2.97;;
18754;SDS011;35061;47.664;9.166;2023-03-19T01:09:38;4.10;;;2.53;;
18754;SDS011;35061;47.664;9.166;2023-03-19T01:12:07;4.47;;;2.70;;
18754;SDS011;35061;47.664;9.166;2023-03-19T01:14:35;4.45;;;2.50;;
18754;SDS011;35061;47.664;9.166;2023-03-19T01:17:03;4.40;;;2.58;;
18754;SDS011;35061;47.664;9.166;2023-03-19T01:19:30;4.32;;;2.87;;
18754;SDS011;35061;47.664;9.166;2023-03-19T01:21:58;2.95;;;2.50;;
18754;SDS011;35061;47.664;9.166;2023-03-19T01:24:32;3.25;;;2.90;;
18754;SDS011;35061;47.664;9.166;2023-03-19T01:27:00;3.95;;;3.35;;
18754;SDS011;35061;47.664;9.166;2023-03-19T01:29:28;5.32;;;2.87;;
18754;SDS011;35061;47.664;9.166;2023-03-19T01:31:55;6.37;;;3.17;;
18754;SDS011;35061;47.664;9.166;2023-03-19T01:34:24;4.40;;;2.87;;
18754;SDS011;35061;47.664;9.166;2023-03-19T01:36:51;4.03;;;2.50;;
18754;SDS011;35061;47.664;9.166;2023-03-19T01:39:19;3.35;;;2.45;;
18754;SDS011;35061;47.664;9.166;2023-03-19T01:41:47;3.75;;;3.15;;
18754;SDS011;35061;47.664;9.166;2023-03-19T01:44:25;5.53;;;3.30;;
18754;SDS011;35061;47.664;9.166;2023-03-19T01:46:54;6.07;;;3.78;;
18754;SDS011;35061;47.664;9.166;2023-03-19T01:49:23;4.37;;;3.20;;
18754;SDS011;35061;47.664;9.166;2023-03-19T01:51:53;4.28;;;2.90;;
18754;SDS011;35061;47.664;9.166;2023-03-19T01:54:22;4.65;;;3.05;;
18754;SDS011;35061;47.664;9.166;2023-03-19T01:57:09;5.80;;;2.92;;
18754;SDS011;35061;47.664;9.166;2023-03-19T01:59:43;4.85;;;3.30;;
18754;SDS011;35061;47.664;9.166;2023-03-19T02:04:51;3.78;;;2.85;;
18754;SDS011;35061;47.664;9.166;2023-03-19T02:07:24;4.00;;;2.65;;
18754;SDS011;35061;47.664;9.166;2023-03-19T02:09:52;4.05;;;2.78;;
18754;SDS011;35061;47.664;9.166;2023-03-19T02:12:21;3.72;;;2.67;;
18754;SDS011;35061;47.664;9.166;2023-03-19T02:14:48;4.35;;;2.95;;
18754;SDS011;35061;47.664;9.166;2023-03-19T02:17:16;3.85;;;2.40;;
18754;SDS011;35061;47.664;9.166;2023-03-19T02:22:19;4.80;;;2.78;;
18754;SDS011;35061;47.664;9.166;2023-03-19T02:24:55;5.47;;;2.55;;
18754;SDS011;35061;47.664;9.166;2023-03-19T02:27:28;3.20;;;2.30;;
18754;SDS011;35061;47.664;9.166;2023-03-19T02:29:56;3.33;;;2.97;;
18754;SDS011;35061;47.664;9.166;2023-03-19T02:32:25;3.10;;;2.28;;
18754;SDS011;35061;47.664;9.166;2023-03-19T02:34:53;4.05;;;2.75;;
18754;SDS011;35061;47.664;9.166;2023-03-19T02:37:25;4.80;;;3.00;;
18754;SDS011;35061;47.664;9.166;2023-03-19T02:40:05;4.20;;;2.80;;
18754;SDS011;35061;47.664;9.166;2023-03-19T02:42:37;3.85;;;2.70;;
18754;SDS011;35061;47.664;9.166;2023-03-19T02:45:05;2.90;;;2.50;;
18754;SDS011;35061;47.664;9.166;2023-03-19T02:47:33;3.95;;;2.58;;
18754;SDS011;35061;47.664;9.166;2023-03-19T02:50:01;3.03;;;2.53;;
18754;SDS011;35061;47.664;9.166;2023-03-19T02:52:29;3.47;;;2.60;;
18754;SDS011;35061;47.664;9.166;2023-03-19T02:54:57;4.22;;;2.70;;
18754;SDS011;35061;47.664;9.166;2023-03-19T02:57:24;3.78;;;2.78;;
18754;SDS011;35061;47.664;9.166;2023-03-19T02:59:52;3.22;;;2.60;;
18754;SDS011;35061;47.664;9.166;2023-03-19T03:02:20;4.37;;;2.60;;
18754;SDS011;35061;47.664;9.166;2023-03-19T03:04:48;3.65;;;2.67;;
18754;SDS011;35061;47.664;9.166;2023-03-19T03:07:15;5.15;;;3.10;;
18754;SDS011;35061;47.664;9.166;2023-03-19T03:09:44;4.50;;;2.97;;
18754;SDS011;35061;47.664;9.166;2023-03-19T03:12:12;5.32;;;2.90;;
18754;SDS011;35061;47.664;9.166;2023-03-19T03:14:40;5.78;;;2.65;;
18754;SDS011;35061;47.664;9.166;2023-03-19T03:17:08;4.05;;;2.78;;
18754;SDS011;35061;47.664;9.166;2023-03-19T03:19:35;2.80;;;2.53;;
18754;SDS011;35061;47.664;9.166;2023-03-19T03:22:03;4.07;;;2.70;;
18754;SDS011;35061;47.664;9.166;2023-03-19T03:24:31;3.15;;;2.85;;
18754;SDS011;35061;47.664;9.166;2023-03-19T03:26:59;3.70;;;2.80;;
18754;SDS011;35061;47.664;9.166;2023-03-19T03:29:27;5.15;;;3.30;;
18754;SDS011;35061;47.664;9.166;2023-03-19T03:31:54;5.85;;;3.10;;
18754;SDS011;35061;47.664;9.166;2023-03-19T03:34:22;4.90;;;3.20;;
18754;SDS011;35061;47.664;9.166;2023-03-19T03:36:50;5.32;;;2.75;;
18754;SDS011;35061;47.664;9.166;2023-03-19T03:39:18;4.22;;;3.20;;
18754;SDS011;35061;47.664;9.166;2023-03-19T03:41:46;4.05;;;2.58;;
18754;SDS011;35061;47.664;9.166;2023-03-19T03:44:14;3.42;;;2.70;;
18754;SDS011;35061;47.664;9.166;2023-03-19T03:46:41;6.57;;;3.55;;
18754;SDS011;35061;47.664;9.166;2023-03-19T03:49:09;4.70;;;3.05;;
18754;SDS011;35061;47.664;9.166;2023-03-19T03:51:37;5.65;;;3.03;;
18754;SDS011;35061;47.664;9.166;2023-03-19T03:54:05;6.93;;;3.42;;
18754;SDS011;35061;47.664;9.166;2023-03-19T03:56:33;5.45;;;3.45;;
18754;SDS011;35061;47.664;9.166;2023-03-19T03:59:02;6.12;;;3.30;;
18754;SDS011;35061;47.664;9.166;2023-03-19T04:01:30;4.47;;;3.37;;
18754;SDS011;35061;47.664;9.166;2023-03-19T04:03:58;6.37;;;3.30;;
18754;SDS011;35061;47.664;9.166;2023-03-19T04:06:26;4.30;;;3.28;;
18754;SDS011;35061;47.664;9.166;2023-03-19T04:08:54;4.65;;;3.22;;
18754;SDS011;35061;47.664;9.166;2023-03-19T04:11:22;6.20;;;3.80;;
18754;SDS011;35061;47.664;9.166;2023-03-19T04:13:50;4.40;;;3.12;;
18754;SDS011;35061;47.664;9.166;2023-03-19T04:16:21;5.95;;;3.78;;
18754;SDS011;35061;47.664;9.166;2023-03-19T04:18:49;5.53;;;3.33;;
18754;SDS011;35061;47.664;9.166;2023-03-19T04:21:17;4.80;;;3.70;;
18754;SDS011;35061;47.664;9.166;2023-03-19T04:23:45;6.93;;;3.90;;
18754;SDS011;35061;47.664;9.166;2023-03-19T04:26:13;5.43;;;3.35;;
18754;SDS011;35061;47.664;9.166;2023-03-19T04:28:40;5.30;;;3.72;;
18754;SDS011;35061;47.664;9.166;2023-03-19T04:31:08;5.32;;;3.50;;
18754;SDS011;35061;47.664;9.166;2023-03-19T04:33:36;5.07;;;3.75;;
18754;SDS011;35061;47.664;9.166;2023-03-19T04:36:05;6.57;;;3.87;;
18754;SDS011;35061;47.664;9.166;2023-03-19T04:38:33;8.20;;;3.90;;
18754;SDS011;35061;47.664;9.166;2023-03-19T04:41:01;4.93;;;3.60;;
18754;SDS011;35061;47.664;9.166;2023-03-19T04:43:29;4.50;;;2.92;;
18754;SDS011;35061;47.664;9.166;2023-03-19T04:45:57;6.65;;;3.60;;
18754;SDS011;35061;47.664;9.166;2023-03-19T04:48:24;4.45;;;3.55;;
18754;SDS011;35061;47.664;9.166;2023-03-19T04:50:52;4.43;;;3.33;;
18754;SDS011;35061;47.664;9.166;2023-03-19T04:53:23;5.65;;;3.35;;
18754;SDS011;35061;47.664;9.166;2023-03-19T04:55:51;4.12;;;3.25;;
18754;SDS011;35061;47.664;9.166;2023-03-19T04:58:19;5.97;;;3.58;;
18754;SDS011;35061;47.664;9.166;2023-03-19T05:00:47;5.37;;;3.80;;
18754;SDS011;35061;47.664;9.166;2023-03-19T05:03:15;5.75;;;3.30;;
18754;SDS011;35061;47.664;9.166;2023-03-19T05:05:43;6.78;;;4.30;;
18754;SDS011;35061;47.664;9.166;2023-03-19T05:08:11;4.95;;;4.05;;
18754;SDS011;35061;47.664;9.166;2023-03-19T05:10:40;4.62;;;3.47;;
18754;SDS011;35061;47.664;9.166;2023-03-19T05:13:07;6.68;;;4.10;;
18754;SDS011;35061;47.664;9.166;2023-03-19T05:15:35;5.65;;;3.75;;
18754;SDS011;35061;47.664;9.166;2023-03-19T05:18:03;6.53;;;4.32;;
18754;SDS011;35061;47.664;9.166;2023-03-19T05:20:31;7.68;;;3.85;;
18754;SDS011;35061;47.664;9.166;2023-03-19T05:22:59;6.25;;;4.12;;
18754;SDS011;35061;47.664;9.166;2023-03-19T05:25:26;7.32;;;4.07;;
18754;SDS011;35061;47.664;9.166;2023-03-19T05:27:55;7.18;;;3.60;;
18754;SDS011;35061;47.664;9.166;2023-03-19T05:30:23;8.25;;;4.18;;
18754;SDS011;35061;47.664;9.166;2023-03-19T05:32:50;6.68;;;3.92;;
18754;SDS011;35061;47.664;9.166;2023-03-19T05:35:19;3.67;;;3.00;;
18754;SDS011;35061;47.664;9.166;2023-03-19T05:37:47;5.32;;;3.37;;
18754;SDS011;35061;47.664;9.166;2023-03-19T05:40:14;6.45;;;4.07;;
18754;SDS011;35061;47.664;9.166;2023-03-19T05:42:42;4.25;;;3.25;;
18754;SDS011;35061;47.664;9.166;2023-03-19T05:45:10;5.57;;;3.75;;
18754;SDS011;35061;47.664;9.166;2023-03-19T05:47:38;5.85;;;3.50;;
18754;SDS011;35061;47.664;9.166;2023-03-19T05:50:06;4.47;;;3.62;;
18754;SDS011;35061;47.664;9.166;2023-03-19T05:52:35;6.40;;;3.72;;
18754;SDS011;35061;47.664;9.166;2023-03-19T05:55:03;4.85;;;3.53;;
18754;SDS011;35061;47.664;9.166;2023-03-19T05:57:34;4.72;;;3.65;;
18754;SDS011;35061;47.664;9.166;2023-03-19T06:00:02;5.75;;;3.97;;
18754;SDS011;35061;47.664;9.166;2023-03-19T06:02:33;5.30;;;3.75;;
18754;SDS011;35061;47.664;9.166;2023-03-19T06:05:02;5.30;;;3.35;;
18754;SDS011;35061;47.664;9.166;2023-03-19T06:07:31;4.90;;;3.37;;
18754;SDS011;35061;47.664;9.166;2023-03-19T06:09:59;7.25;;;3.85;;
18754;SDS011;35061;47.664;9.166;2023-03-19T06:12:26;6.65;;;3.05;;
18754;SDS011;35061;47.664;9.166;2023-03-19T06:14:54;5.72;;;3.78;;
18754;SDS011;35061;47.664;9.166;2023-03-19T06:17:22;8.27;;;3.62;;
18754;SDS011;35061;47.664;9.166;2023-03-19T06:19:50;4.60;;;4.03;;
18754;SDS011;35061;47.664;9.166;2023-03-19T06:22:18;5.90;;;3.87;;
18754;SDS011;35061;47.664;9.166;2023-03-19T06:24:46;6.60;;;3.10;;
18754;SDS011;35061;47.664;9.166;2023-03-19T06:27:14;4.03;;;3.28;;
18754;SDS011;35061;47.664;9.166;2023-03-19T06:29:42;3.95;;;3.42;;
18754;SDS011;35061;47.664;9.166;2023-03-19T06:32:09;6.40;;;3.83;;
18754;SDS011;35061;47.664;9.166;2023-03-19T06:34:37;6.72;;;3.97;;
18754;SDS011;35061;47.664;9.166;2023-03-19T06:37:05;5.07;;;3.35;;
18754;SDS011;35061;47.664;9.166;2023-03-19T06:39:33;4.50;;;3.20;;
18754;SDS011;35061;47.664;9.166;2023-03-19T06:42:01;7.25;;;3.80;;
18754;SDS011;35061;47.664;9.166;2023-03-19T06:44:29;5.28;;;3.92;;
18754;SDS011;35061;47.664;9.166;2023-03-19T06:46:56;5.90;;;4.05;;
18754;SDS011;35061;47.664;9.166;2023-03-19T06:49:24;4.40;;;3.72;;
18754;SDS011;35061;47.664;9.166;2023-03-19T06:51:52;6.28;;;3.78;;
18754;SDS011;35061;47.664;9.166;2023-03-19T06:54:19;7.05;;;4.12;;
18754;SDS011;35061;47.664;9.166;2023-03-19T06:56:47;5.40;;;3.67;;
18754;SDS011;35061;47.664;9.166;2023-03-19T06:59:15;5.95;;;3.55;;
18754;SDS011;35061;47.664;9.166;2023-03-19T07:01:42;6.28;;;4.18;;
18754;SDS011;35061;47.664;9.166;2023-03-19T07:04:10;7.07;;;3.97;;
18754;SDS011;35061;47.664;9.166;2023-03-19T07:06:38;5.28;;;3.65;;
18754;SDS011;35061;47.664;9.166;2023-03-19T07:09:06;4.60;;;3.80;;
18754;SDS011;35061;47.664;9.166;2023-03-19T07:11:34;5.28;;;3.55;;
18754;SDS011;35061;47.664;9.166;2023-03-19T07:14:02;6.20;;;4.00;;
18754;SDS011;35061;47.664;9.166;2023-03-19T07:16:30;6.22;;;4.15;;
18754;SDS011;35061;47.664;9.166;2023-03-19T07:18:58;5.12;;;3.78;;
18754;SDS011;35061;47.664;9.166;2023-03-19T07:21:26;4.53;;;3.80;;
18754;SDS011;35061;47.664;9.166;2023-03-19T07:23:55;4.47;;;3.40;;
18754;SDS011;35061;47.664;9.166;2023-03-19T07:26:23;5.10;;;3.95;;
18754;SDS011;35061;47.664;9.166;2023-03-19T07:28:50;4.82;;;3.72;;
18754;SDS011;35061;47.664;9.166;2023-03-19T07:31:18;8.25;;;4.15;;
18754;SDS011;35061;47.664;9.166;2023-03-19T07:33:46;5.75;;;3.60;;
18754;SDS011;35061;47.664;9.166;2023-03-19T07:36:13;5.30;;;3.58;;
18754;SDS011;35061;47.664;9.166;2023-03-19T07:38:41;5.05;;;3.45;;
18754;SDS011;35061;47.664;9.166;2023-03-19T07:41:09;4.82;;;4.10;;
18754;SDS011;35061;47.664;9.166;2023-03-19T07:43:37;7.53;;;4.10;;
18754;SDS011;35061;47.664;9.166;2023-03-19T07:46:05;5.90;;;3.58;;
18754;SDS011;35061;47.664;9.166;2023-03-19T07:48:32;6.07;;;3.62;;
18754;SDS011;35061;47.664;9.166;2023-03-19T07:51:01;5.93;;;3.42;;
18754;SDS011;35061;47.664;9.166;2023-03-19T07:53:28;6.50;;;3.40;;
18754;SDS011;35061;47.664;9.166;2023-03-19T07:55:56;5.05;;;3.83;;
18754;SDS011;35061;47.664;9.166;2023-03-19T07:58:24;5.90;;;3.85;;
18754;SDS011;35061;47.664;9.166;2023-03-19T08:00:52;5.00;;;3.35;;
18754;SDS011;35061;47.664;9.166;2023-03-19T08:03:20;6.10;;;3.65;;
18754;SDS011;35061;47.664;9.166;2023-03-19T08:05:48;5.90;;;3.45;;
18754;SDS011;35061;47.664;9.166;2023-03-19T08:08:16;5.40;;;3.70;;
18754;SDS011;35061;47.664;9.166;2023-03-19T08:10:44;5.18;;;3.90;;
18754;SDS011;35061;47.664;9.166;2023-03-19T08:13:12;3.60;;;3.10;;
18754;SDS011;35061;47.664;9.166;2023-03-19T08:15:40;4.50;;;3.62;;
18754;SDS011;35061;47.664;9.166;2023-03-19T08:18:08;4.32;;;3.85;;
18754;SDS011;35061;47.664;9.166;2023-03-19T08:20:36;6.50;;;3.80;;
18754;SDS011;35061;47.664;9.166;2023-03-19T08:23:04;7.05;;;4.05;;
18754;SDS011;35061;47.664;9.166;2023-03-19T08:25:32;4.87;;;3.45;;
18754;SDS011;35061;47.664;9.166;2023-03-19T08:28:00;4.70;;;3.37;;
18754;SDS011;35061;47.664;9.166;2023-03-19T08:30:28;4.75;;;3.75;;
18754;SDS011;35061;47.664;9.166;2023-03-19T08:32:56;6.00;;;3.60;;
18754;SDS011;35061;47.664;9.166;2023-03-19T08:35:24;4.50;;;3.30;;
18754;SDS011;35061;47.664;9.166;2023-03-19T08:37:55;4.30;;;2.87;;
18754;SDS011;35061;47.664;9.166;2023-03-19T08:40:23;4.03;;;3.60;;
18754;SDS011;35061;47.664;9.166;2023-03-19T08:42:51;5.87;;;3.80;;
18754;SDS011;35061;47.664;9.166;2023-03-19T08:45:20;4.15;;;3.30;;
18754;SDS011;35061;47.664;9.166;2023-03-19T08:47:49;5.90;;;3.17;;
18754;SDS011;35061;47.664;9.166;2023-03-19T08:50:17;5.10;;;3.58;;
18754;SDS011;35061;47.664;9.166;2023-03-19T08:52:45;5.55;;;3.87;;
18754;SDS011;35061;47.664;9.166;2023-03-19T08:55:13;4.37;;;3.12;;
18754;SDS011;35061;47.664;9.166;2023-03-19T08:57:40;4.85;;;3.42;;
18754;SDS011;35061;47.664;9.166;2023-03-19T09:00:08;6.00;;;2.90;;
18754;SDS011;35061;47.664;9.166;2023-03-19T09:02:36;5.80;;;2.92;;
18754;SDS011;35061;47.664;9.166;2023-03-19T09:05:05;5.57;;;3.35;;
18754;SDS011;35061;47.664;9.166;2023-03-19T09:07:33;4.68;;;3.25;;
18754;SDS011;35061;47.664;9.166;2023-03-19T09:10:01;3.00;;;2.70;;
18754;SDS011;35061;47.664;9.166;2023-03-19T09:12:29;15.85;;;3.85;;
18754;SDS011;35061;47.664;9.166;2023-03-19T09:14:57;3.75;;;2.92;;
18754;SDS011;35061;47.664;9.166;2023-03-19T09:17:24;4.10;;;2.85;;
18754;SDS011;35061;47.664;9.166;2023-03-19T09:19:52;5.85;;;2.92;;
18754;SDS011;35061;47.664;9.166;2023-03-19T09:22:20;3.30;;;3.00;;
18754;SDS011;35061;47.664;9.166;2023-03-19T09:24:48;3.95;;;3.30;;
18754;SDS011;35061;47.664;9.166;2023-03-19T09:27:15;5.28;;;3.35;;
18754;SDS011;35061;47.664;9.166;2023-03-19T09:29:43;4.57;;;3.37;;
18754;SDS011;35061;47.664;9.166;2023-03-19T09:32:11;4.57;;;3.08;;
18754;SDS011;35061;47.664;9.166;2023-03-19T09:34:38;2.90;;;2.60;;
18754;SDS011;35061;47.664;9.166;2023-03-19T09:37:07;3.87;;;2.87;;
18754;SDS011;35061;47.664;9.166;2023-03-19T09:39:34;4.47;;;3.22;;
18754;SDS011;35061;47.664;9.166;2023-03-19T09:45:01;3.80;;;3.40;;
18754;SDS011;35061;47.664;9.166;2023-03-19T09:47:33;4.35;;;3.53;;
18754;SDS011;35061;47.664;9.166;2023-03-19T09:50:10;4.78;;;3.90;;
18754;SDS011;35061;47.664;9.166;2023-03-19T09:57:50;5.15;;;4.18;;
18754;SDS011;35061;47.664;9.166;2023-03-19T10:00:25;5.70;;;4.25;;
18754;SDS011;35061;47.664;9.166;2023-03-19T10:03:10;4.72;;;3.92;;
18754;SDS011;35061;47.664;9.166;2023-03-19T10:11:36;6.35;;;4.72;;
18754;SDS011;35061;47.664;9.166;2023-03-19T10:16:55;6.12;;;3.97;;
18754;SDS011;35061;47.664;9.166;2023-03-19T10:19:29;4.97;;;4.47;;
18754;SDS011;35061;47.664;9.166;2023-03-19T10:22:06;5.72;;;4.30;;
18754;SDS011;35061;47.664;9.166;2023-03-19T10:24:43;7.10;;;4.70;;
18754;SDS011;35061;47.664;9.166;2023-03-19T10:27:13;4.50;;;3.70;;
18754;SDS011;35061;47.664;9.166;2023-03-19T10:29:43;7.37;;;4.35;;
18754;SDS011;35061;47.664;9.166;2023-03-19T10:32:18;6.03;;;3.85;;
18754;SDS011;35061;47.664;9.166;2023-03-19T10:34:49;5.97;;;4.78;;
18754;SDS011;35061;47.664;9.166;2023-03-19T10:37:22;6.80;;;4.22;;
18754;SDS011;35061;47.664;9.166;2023-03-19T10:39:57;4.95;;;3.92;;
18754;SDS011;35061;47.664;9.166;2023-03-19T10:45:22;5.12;;;3.70;;
18754;SDS011;35061;47.664;9.166;2023-03-19T10:47:57;4.68;;;3.75;;
18754;SDS011;35061;47.664;9.166;2023-03-19T10:51:13;5.95;;;4.00;;
18754;SDS011;35061;47.664;9.166;2023-03-19T10:56:09;3.95;;;3.55;;
18754;SDS011;35061;47.664;9.166;2023-03-19T10:58:54;4.10;;;3.60;;
18754;SDS011;35061;47.664;9.166;2023-03-19T11:01:32;5.65;;;3.70;;
18754;SDS011;35061;47.664;9.166;2023-03-19T11:04:02;5.35;;;3.67;;
18754;SDS011;35061;47.664;9.166;2023-03-19T11:06:39;5.45;;;4.40;;
18754;SDS011;35061;47.664;9.166;2023-03-19T11:11:36;4.05;;;3.33;;
18754;SDS011;35061;47.664;9.166;2023-03-19T11:14:19;7.35;;;3.78;;
18754;SDS011;35061;47.664;9.166;2023-03-19T11:16:55;4.78;;;3.60;;
18754;SDS011;35061;47.664;9.166;2023-03-19T11:19:28;4.70;;;3.28;;
18754;SDS011;35061;47.664;9.166;2023-03-19T11:21:59;4.62;;;3.42;;
18754;SDS011;35061;47.664;9.166;2023-03-19T11:24:38;4.85;;;3.40;;
18754;SDS011;35061;47.664;9.166;2023-03-19T11:27:08;5.15;;;3.72;;
18754;SDS011;35061;47.664;9.166;2023-03-19T11:29:41;4.62;;;3.37;;
18754;SDS011;35061;47.664;9.166;2023-03-19T11:35:24;4.20;;;3.50;;
18754;SDS011;35061;47.664;9.166;2023-03-19T11:37:59;4.57;;;3.28;;
18754;SDS011;35061;47.664;9.166;2023-03-19T11:48:54;5.80;;;2.97;;
18754;SDS011;35061;47.664;9.166;2023-03-19T11:54:21;3.87;;;3.12;;
18754;SDS011;35061;47.664;9.166;2023-03-19T12:00:22;3.33;;;2.97;;
18754;SDS011;35061;47.664;9.166;2023-03-19T12:05:16;3.03;;;2.70;;
18754;SDS011;35061;47.664;9.166;2023-03-19T12:11:08;4.50;;;2.22;;
18754;SDS011;35061;47.664;9.166;2023-03-19T12:13:49;3.92;;;2.40;;
18754;SDS011;35061;47.664;9.166;2023-03-19T12:22:16;3.30;;;2.12;;
18754;SDS011;35061;47.664;9.166;2023-03-19T12:30:37;4.37;;;2.17;;
18754;SDS011;35061;47.664;9.166;2023-03-19T12:36:19;3.33;;;2.37;;
18754;SDS011;35061;47.664;9.166;2023-03-19T12:38:52;3.65;;;2.33;;
18754;SDS011;35061;47.664;9.166;2023-03-19T12:41:26;3.45;;;2.50;;
18754;SDS011;35061;47.664;9.166;2023-03-19T12:44:40;3.37;;;2.53;;
18754;SDS011;35061;47.664;9.166;2023-03-19T12:46:50;6.12;;;2.92;;
18754;SDS011;35061;47.664;9.166;2023-03-19T12:49:29;4.60;;;2.67;;
18754;SDS011;35061;47.664;9.166;2023-03-19T12:52:26;4.55;;;2.97;;
18754;SDS011;35061;47.664;9.166;2023-03-19T12:55:32;3.67;;;2.50;;
18754;SDS011;35061;47.664;9.166;2023-03-19T12:58:15;4.87;;;2.70;;
18754;SDS011;35061;47.664;9.166;2023-03-19T13:00:58;4.78;;;2.50;;
18754;SDS011;35061;47.664;9.166;2023-03-19T13:06:30;2.45;;;2.25;;
18754;SDS011;35061;47.664;9.166;2023-03-19T13:09:11;3.35;;;2.12;;
18754;SDS011;35061;47.664;9.166;2023-03-19T13:11:54;3.33;;;2.58;;
18754;SDS011;35061;47.664;9.166;2023-03-19T13:14:33;3.45;;;2.37;;
18754;SDS011;35061;47.664;9.166;2023-03-19T13:19:47;4.12;;;2.60;;
18754;SDS011;35061;47.664;9.166;2023-03-19T13:22:24;6.12;;;3.17;;
18754;SDS011;35061;47.664;9.166;2023-03-19T13:24:56;3.45;;;2.50;;
18754;SDS011;35061;47.664;9.166;2023-03-19T13:27:29;3.05;;;2.28;;
18754;SDS011;35061;47.664;9.166;2023-03-19T13:30:00;3.03;;;2.42;;
18754;SDS011;35061;47.664;9.166;2023-03-19T13:32:38;4.45;;;2.12;;
18754;SDS011;35061;47.664;9.166;2023-03-19T13:37:42;5.18;;;2.80;;
18754;SDS011;35061;47.664;9.166;2023-03-19T13:43:18;3.45;;;2.47;;
18754;SDS011;35061;47.664;9.166;2023-03-19T13:59:28;2.25;;;2.00;;
18754;SDS011;35061;47.664;9.166;2023-03-19T14:01:57;2.62;;;1.98;;
18754;SDS011;35061;47.664;9.166;2023-03-19T14:09:42;2.20;;;2.00;;
18754;SDS011;35061;47.664;9.166;2023-03-19T14:12:37;4.75;;;2.03;;
18754;SDS011;35061;47.664;9.166;2023-03-19T14:31:13;3.65;;;1.90;;
18754;SDS011;35061;47.664;9.166;2023-03-19T14:34:06;3.05;;;2.12;;
18754;SDS011;35061;47.664;9.166;2023-03-19T14:36:43;3.85;;;2.87;;
18754;SDS011;35061;47.664;9.166;2023-03-19T14:39:25;4.47;;;2.45;;
18754;SDS011;35061;47.664;9.166;2023-03-19T14:42:04;1.80;;;1.70;;
18754;SDS011;35061;47.664;9.166;2023-03-19T14:44:41;2.60;;;1.95;;
18754;SDS011;35061;47.664;9.166;2023-03-19T14:49:47;3.47;;;1.98;;
18754;SDS011;35061;47.664;9.166;2023-03-19T14:52:31;2.40;;;1.90;;
18754;SDS011;35061;47.664;9.166;2023-03-19T14:55:07;2.10;;;1.73;;
18754;SDS011;35061;47.664;9.166;2023-03-19T14:57:37;2.30;;;2.10;;
18754;SDS011;35061;47.664;9.166;2023-03-19T15:00:06;1.95;;;1.75;;
18754;SDS011;35061;47.664;9.166;2023-03-19T15:02:48;2.50;;;2.00;;
18754;SDS011;35061;47.664;9.166;2023-03-19T15:05:23;2.92;;;1.95;;
18754;SDS011;35061;47.664;9.166;2023-03-19T15:07:55;3.00;;;1.98;;
18754;SDS011;35061;47.664;9.166;2023-03-19T15:10:28;4.07;;;1.70;;
18754;SDS011;35061;47.664;9.166;2023-03-19T15:18:26;3.03;;;2.10;;
18754;SDS011;35061;47.664;9.166;2023-03-19T15:20:54;4.57;;;2.12;;
18754;SDS011;35061;47.664;9.166;2023-03-19T15:23:24;2.95;;;2.08;;
18754;SDS011;35061;47.664;9.166;2023-03-19T15:25:55;3.30;;;2.53;;
18754;SDS011;35061;47.664;9.166;2023-03-19T15:28:28;3.15;;;2.35;;
18754;SDS011;35061;47.664;9.166;2023-03-19T15:31:04;3.03;;;2.35;;
18754;SDS011;35061;47.664;9.166;2023-03-19T15:33:53;3.25;;;2.33;;
18754;SDS011;35061;47.664;9.166;2023-03-19T15:36:22;3.55;;;2.20;;
18754;SDS011;35061;47.664;9.166;2023-03-19T15:38:55;4.97;;;2.40;;
18754;SDS011;35061;47.664;9.166;2023-03-19T15:41:27;3.53;;;2.08;;
18754;SDS011;35061;47.664;9.166;2023-03-19T15:43:58;2.80;;;2.35;;
18754;SDS011;35061;47.664;9.166;2023-03-19T15:46:29;2.83;;;1.98;;
18754;SDS011;35061;47.664;9.166;2023-03-19T15:49:04;4.60;;;2.08;;
18754;SDS011;35061;47.664;9.166;2023-03-19T15:51:37;2.80;;;2.00;;
18754;SDS011;35061;47.664;9.166;2023-03-19T15:54:06;2.45;;;2.03;;
18754;SDS011;35061;47.664;9.166;2023-03-19T15:56:35;2.72;;;2.28;;
18754;SDS011;35061;47.664;9.166;2023-03-19T15:59:03;2.20;;;2.00;;
18754;SDS011;35061;47.664;9.166;2023-03-19T16:01:31;2.78;;;1.70;;
18754;SDS011;35061;47.664;9.166;2023-03-19T16:04:01;1.55;;;1.40;;
18754;SDS011;35061;47.664;9.166;2023-03-19T16:06:36;1.30;;;1.20;;
18754;SDS011;35061;47.664;9.166;2023-03-19T16:11:44;3.00;;;1.52;;
18754;SDS011;35061;47.664;9.166;2023-03-19T16:16:40;2.95;;;1.40;;
18754;SDS011;35061;47.664;9.166;2023-03-19T16:22:27;1.67;;;1.40;;
18754;SDS011;35061;47.664;9.166;2023-03-19T16:24:56;4.60;;;1.70;;
18754;SDS011;35061;47.664;9.166;2023-03-19T16:27:33;2.53;;;1.50;;
18754;SDS011;35061;47.664;9.166;2023-03-19T16:30:03;3.83;;;2.00;;
18754;SDS011;35061;47.664;9.166;2023-03-19T16:33:00;2.08;;;1.85;;
18754;SDS011;35061;47.664;9.166;2023-03-19T16:35:31;1.67;;;1.58;;
18754;SDS011;35061;47.664;9.166;2023-03-19T16:38:17;3.17;;;2.10;;
18754;SDS011;35061;47.664;9.166;2023-03-19T16:40:49;3.03;;;1.87;;
18754;SDS011;35061;47.664;9.166;2023-03-19T16:43:42;2.28;;;2.05;;
18754;SDS011;35061;47.664;9.166;2023-03-19T16:46:13;2.58;;;1.70;;
18754;SDS011;35061;47.664;9.166;2023-03-19T16:48:42;2.72;;;1.75;;
18754;SDS011;35061;47.664;9.166;2023-03-19T16:51:11;3.22;;;2.30;;
18754;SDS011;35061;47.664;9.166;2023-03-19T16:53:43;3.42;;;2.33;;
18754;SDS011;35061;47.664;9.166;2023-03-19T16:56:13;2.58;;;2.35;;
18754;SDS011;35061;47.664;9.166;2023-03-19T16:58:42;2.35;;;1.77;;
18754;SDS011;35061;47.664;9.166;2023-03-19T17:01:12;3.47;;;1.62;;
18754;SDS011;35061;47.664;9.166;2023-03-19T17:03:48;2.83;;;1.90;;
18754;SDS011;35061;47.664;9.166;2023-03-19T17:06:17;2.58;;;1.90;;
18754;SDS011;35061;47.664;9.166;2023-03-19T17:08:47;1.80;;;1.70;;
18754;SDS011;35061;47.664;9.166;2023-03-19T17:11:36;2.15;;;1.83;;
18754;SDS011;35061;47.664;9.166;2023-03-19T17:14:06;2.92;;;2.25;;
18754;SDS011;35061;47.664;9.166;2023-03-19T17:16:45;2.90;;;2.53;;
18754;SDS011;35061;47.664;9.166;2023-03-19T17:19:21;3.40;;;3.08;;